Time;durP1;ratioP1;P1;durP2;ratioP2;P2;SDS_P1;SDS_P2;PMS_P1;PMS_P2;Temp;Humidity;BMP_temperature;BMP_pressure;BME280_temperature;BME280_humidity;BME280_pressure;Samples;Min_cycle;Max_cycle;Signal;HPM_P1;HPM_P2
2024/01/11 00:00:31;;;;;;;15.30;6.03;;;20.60;99.90;;;;;;5006107;28;20038;-49
2024/01/11 00:02:57;;;;;;;7.75;5.82;;;20.60;99.90;;;;;;4993850;28;20513;-50
2024/01/11 00:05:22;;;;;;;9.13;5.15;;;20.60;99.90;;;;;;5014158;28;20473;-50
2024/01/11 00:07:49;;;;;;;9.50;6.28;;;20.60;99.90;;;;;;5001343;28;20022;-47
2024/01/11 00:10:16;;;;;;;13.07;6.15;;;20.50;99.90;;;;;;5012199;28;20060;-50
2024/01/11 00:12:42;;;;;;;10.30;5.23;;;20.50;99.90;;;;;;5012157;28;20144;-48
2024/01/11 00:15:08;;;;;;;9.75;6.18;;;20.50;99.90;;;;;;4997041;28;20125;-47
2024/01/11 00:17:34;;;;;;;10.07;6.25;;;20.50;99.90;;;;;;5013673;28;20532;-48
2024/01/11 00:20:00;;;;;;;9.80;6.35;;;20.50;99.90;;;;;;5014280;28;20056;-52
2024/01/11 00:22:27;;;;;;;9.50;6.35;;;20.50;99.90;;;;;;5013607;28;20037;-52
2024/01/11 00:24:53;;;;;;;9.32;6.10;;;20.50;99.90;;;;;;5003696;28;20053;-53
2024/01/11 00:27:18;;;;;;;7.65;5.65;;;20.40;99.90;;;;;;5012986;28;20470;-53
2024/01/11 00:29:44;;;;;;;10.27;6.85;;;20.40;99.90;;;;;;5013938;28;20026;-54
2024/01/11 00:32:10;;;;;;;9.43;6.53;;;20.40;99.90;;;;;;5013898;28;20470;-55
2024/01/11 00:34:36;;;;;;;10.23;6.50;;;20.50;99.90;;;;;;5013531;28;20014;-54
2024/01/11 00:37:02;;;;;;;10.18;5.80;;;20.40;99.90;;;;;;5013812;28;20018;-53
2024/01/11 00:39:29;;;;;;;9.35;6.50;;;20.40;99.90;;;;;;5013466;28;20057;-53
2024/01/11 00:41:55;;;;;;;10.57;5.97;;;20.40;99.90;;;;;;5013319;28;20034;-49
2024/01/11 00:44:21;;;;;;;9.73;6.35;;;20.40;99.90;;;;;;5010988;28;20034;-48
2024/01/11 00:46:47;;;;;;;11.65;6.65;;;20.40;99.90;;;;;;5013143;28;20026;-49
2024/01/11 00:49:13;;;;;;;8.75;6.15;;;20.30;99.90;;;;;;5012592;28;20061;-52
2024/01/11 00:51:39;;;;;;;12.05;6.25;;;20.40;99.90;;;;;;4996027;28;20025;-52
2024/01/11 00:54:05;;;;;;;9.82;6.32;;;20.30;99.90;;;;;;5013366;28;20030;-49
2024/01/11 00:56:31;;;;;;;10.38;6.70;;;20.30;99.90;;;;;;5011238;28;20022;-48
2024/01/11 00:58:57;;;;;;;9.00;6.45;;;20.30;99.90;;;;;;5007851;28;20032;-49
2024/01/11 01:01:22;;;;;;;9.82;7.10;;;20.30;99.90;;;;;;5013340;28;20104;-50
2024/01/11 01:03:48;;;;;;;13.13;8.20;;;20.30;99.90;;;;;;5012750;28;20030;-52
2024/01/11 01:06:14;;;;;;;12.77;6.78;;;20.30;99.90;;;;;;5013143;28;20030;-51
2024/01/11 01:08:40;;;;;;;11.75;7.28;;;20.30;99.90;;;;;;5013225;28;20113;-50
2024/01/11 01:11:06;;;;;;;9.98;7.03;;;20.20;99.90;;;;;;5013137;28;20613;-49
2024/01/11 01:13:32;;;;;;;10.90;7.22;;;20.20;99.90;;;;;;5013121;28;20029;-49
2024/01/11 01:15:58;;;;;;;9.30;6.40;;;20.20;99.90;;;;;;5009772;28;20105;-49
2024/01/11 01:18:23;;;;;;;11.23;7.13;;;20.20;99.90;;;;;;5013056;28;20054;-49
2024/01/11 01:20:50;;;;;;;8.88;6.30;;;20.20;99.90;;;;;;5013044;28;20140;-50
2024/01/11 01:23:16;;;;;;;12.02;7.38;;;20.20;99.90;;;;;;5013569;28;20034;-52
2024/01/11 01:25:42;;;;;;;12.82;6.75;;;20.20;99.90;;;;;;5013059;28;20060;-51
2024/01/11 01:28:08;;;;;;;12.38;7.43;;;20.20;99.90;;;;;;5011900;28;20413;-51
2024/01/11 01:30:34;;;;;;;10.32;7.05;;;20.20;99.90;;;;;;5012554;28;20057;-52
2024/01/11 01:33:00;;;;;;;13.05;7.80;;;20.10;99.90;;;;;;5012983;28;20486;-52
2024/01/11 01:35:25;;;;;;;11.30;7.68;;;20.10;99.90;;;;;;5010972;28;20387;-49
2024/01/11 01:37:51;;;;;;;12.05;8.23;;;20.10;99.90;;;;;;5011392;28;20022;-48
2024/01/11 01:40:17;;;;;;;14.75;8.73;;;20.10;99.90;;;;;;5012214;28;20048;-51
2024/01/11 01:42:44;;;;;;;18.13;9.13;;;20.10;99.90;;;;;;5012330;28;20034;-51
2024/01/11 01:45:10;;;;;;;15.93;9.60;;;20.10;99.90;;;;;;5012774;28;20410;-50
2024/01/11 01:47:37;;;;;;;18.67;11.20;;;20.10;99.90;;;;;;4994977;28;20424;-50
2024/01/11 01:50:04;;;;;;;18.17;10.57;;;20.10;99.90;;;;;;5011481;28;20010;-52
2024/01/11 01:52:33;;;;;;;17.35;11.32;;;20.10;99.90;;;;;;5012303;28;20030;-50
2024/01/11 01:54:59;;;;;;;19.92;12.15;;;20.10;99.90;;;;;;5012748;28;20032;-51
2024/01/11 01:57:25;;;;;;;18.67;12.20;;;20.00;99.90;;;;;;5001014;28;20022;-50
2024/01/11 01:59:52;;;;;;;18.38;11.88;;;20.00;99.90;;;;;;5003587;28;20029;-47
2024/01/11 02:02:20;;;;;;;19.95;12.85;;;20.00;99.90;;;;;;4997716;28;20054;-50
2024/01/11 02:04:46;;;;;;;21.05;13.13;;;20.00;99.90;;;;;;5008143;28;20025;-49
2024/01/11 02:07:12;;;;;;;18.27;11.70;;;20.00;99.90;;;;;;4994154;28;20117;-49
2024/01/11 02:09:40;;;;;;;18.50;11.98;;;20.00;99.90;;;;;;4999151;28;20022;-48
2024/01/11 02:12:06;;;;;;;22.58;12.18;;;20.00;99.90;;;;;;5012362;28;20462;-51
2024/01/11 02:14:32;;;;;;;20.70;12.35;;;20.00;99.90;;;;;;5012090;28;20021;-51
2024/01/11 02:16:58;;;;;;;21.27;13.60;;;20.00;99.90;;;;;;5012294;28;20022;-52
2024/01/11 02:19:24;;;;;;;20.42;13.40;;;20.00;99.90;;;;;;5012193;28;20045;-52
2024/01/11 02:21:54;;;;;;;24.02;14.77;;;20.00;99.90;;;;;;5010801;28;20480;-51
2024/01/11 02:24:21;;;;;;;23.35;14.00;;;20.00;99.90;;;;;;5011936;28;20029;-52
2024/01/11 02:27:04;;;;;;;21.45;13.75;;;19.90;99.90;;;;;;5012363;28;20030;-52
2024/01/11 02:29:30;;;;;;;21.70;13.50;;;19.90;99.90;;;;;;5011073;28;20022;-52
2024/01/11 02:31:57;;;;;;;29.80;13.85;;;19.90;99.90;;;;;;5011224;28;20488;-54
2024/01/11 02:34:26;;;;;;;20.90;14.13;;;19.90;99.90;;;;;;5010876;28;20382;-54
2024/01/11 02:36:53;;;;;;;23.50;13.50;;;19.90;99.90;;;;;;5012131;28;20029;-54
2024/01/11 02:39:22;;;;;;;24.00;14.73;;;19.90;99.90;;;;;;5011980;28;20442;-53
2024/01/11 02:41:50;;;;;;;25.77;15.63;;;19.90;99.90;;;;;;5010383;28;20084;-55
2024/01/11 02:44:16;;;;;;;23.13;14.38;;;19.80;99.90;;;;;;5010958;28;20022;-55
2024/01/11 02:46:42;;;;;;;25.98;14.93;;;19.80;99.90;;;;;;5004965;28;20030;-53
2024/01/11 02:49:08;;;;;;;25.45;16.48;;;19.80;99.90;;;;;;5003998;28;20430;-53
2024/01/11 02:51:35;;;;;;;29.52;17.30;;;19.80;99.90;;;;;;4996665;28;20030;-53
2024/01/11 02:54:01;;;;;;;24.00;15.60;;;19.80;99.90;;;;;;5014784;28;20084;-53
2024/01/11 02:56:27;;;;;;;29.48;16.98;;;19.80;99.90;;;;;;5014598;28;20026;-53
2024/01/11 02:58:53;;;;;;;25.35;16.38;;;19.80;99.90;;;;;;5013249;28;20470;-54
2024/01/11 03:01:19;;;;;;;25.58;16.60;;;19.80;99.90;;;;;;5013666;28;20519;-54
2024/01/11 03:03:44;;;;;;;25.65;16.85;;;19.80;99.90;;;;;;5014060;28;20033;-54
2024/01/11 03:06:10;;;;;;;27.15;16.13;;;19.70;99.90;;;;;;5014056;28;20045;-53
2024/01/11 03:08:36;;;;;;;28.35;16.40;;;19.70;99.90;;;;;;5014733;28;20359;-53
2024/01/11 03:11:02;;;;;;;24.95;16.10;;;19.70;99.90;;;;;;5015673;28;20029;-54
2024/01/11 03:13:28;;;;;;;26.95;16.75;;;19.70;99.90;;;;;;5015761;28;20037;-54
2024/01/11 03:15:54;;;;;;;29.17;16.58;;;19.70;99.90;;;;;;5014379;28;20025;-54
2024/01/11 03:18:19;;;;;;;25.80;17.15;;;19.70;99.90;;;;;;5015715;28;20471;-54
2024/01/11 03:20:45;;;;;;;30.08;17.70;;;19.60;99.90;;;;;;5015804;28;20360;-54
2024/01/11 03:23:11;;;;;;;29.58;16.58;;;19.60;99.90;;;;;;5015428;28;20036;-55
2024/01/11 03:25:37;;;;;;;29.48;17.58;;;19.60;99.90;;;;;;5015550;28;20097;-56
2024/01/11 03:28:03;;;;;;;26.10;16.30;;;19.70;99.90;;;;;;5015385;28;20084;-54
2024/01/11 03:30:28;;;;;;;26.58;16.35;;;19.60;99.90;;;;;;5015415;28;20443;-55
2024/01/11 03:32:54;;;;;;;27.55;16.42;;;19.60;99.90;;;;;;5015477;28;20033;-55
2024/01/11 03:35:20;;;;;;;25.85;15.50;;;19.60;99.90;;;;;;5015225;28;20092;-55
2024/01/11 03:37:46;;;;;;;27.67;17.65;;;19.60;99.90;;;;;;5013906;28;20026;-55
2024/01/11 03:40:12;;;;;;;32.47;17.80;;;19.50;99.90;;;;;;5015230;28;20462;-55
2024/01/11 03:42:38;;;;;;;26.77;16.35;;;19.50;99.90;;;;;;5015048;28;20038;-55
2024/01/11 03:45:05;;;;;;;21.60;13.82;;;19.50;99.90;;;;;;5015454;28;20087;-55
2024/01/11 03:47:30;;;;;;;30.00;17.40;;;19.50;99.90;;;;;;5015088;28;20026;-54
2024/01/11 03:49:56;;;;;;;25.58;15.13;;;19.50;99.90;;;;;;5014979;28;20026;-55
2024/01/11 03:52:22;;;;;;;23.92;14.93;;;19.50;99.90;;;;;;5014975;28;20022;-55
2024/01/11 03:54:48;;;;;;;25.67;16.10;;;19.50;99.90;;;;;;5014947;28;20075;-55
2024/01/11 03:57:14;;;;;;;25.08;15.68;;;19.40;99.90;;;;;;5015010;28;20033;-55
2024/01/11 03:59:41;;;;;;;21.60;12.98;;;19.50;99.90;;;;;;5013643;28;20529;-54
2024/01/11 04:02:07;;;;;;;23.60;15.48;;;19.40;99.90;;;;;;5053618;22;20107;-51
2024/01/11 04:04:33;;;;;;;17.45;11.60;;;19.40;99.90;;;;;;5054625;28;20084;-48
2024/01/11 04:06:59;;;;;;;24.13;14.75;;;19.40;99.90;;;;;;5054483;28;20596;-51
2024/01/11 04:09:25;;;;;;;20.58;14.13;;;19.40;99.90;;;;;;5054377;28;20067;-49
2024/01/11 04:11:51;;;;;;;20.20;12.60;;;19.40;99.90;;;;;;5054423;28;20071;-49
2024/01/11 04:14:17;;;;;;;19.40;12.30;;;19.40;99.90;;;;;;5036112;28;20471;-48
2024/01/11 04:16:43;;;;;;;20.35;13.75;;;19.30;99.90;;;;;;5053935;28;20036;-49
2024/01/11 04:19:09;;;;;;;23.90;14.15;;;19.30;99.90;;;;;;5052606;28;20048;-49
2024/01/11 04:21:37;;;;;;;22.85;14.98;;;19.30;99.90;;;;;;5054114;28;20048;-49
2024/01/11 04:24:03;;;;;;;20.88;13.48;;;19.30;99.90;;;;;;5054466;28;20516;-52
2024/01/11 04:26:28;;;;;;;22.40;13.88;;;19.30;99.90;;;;;;5054142;28;20036;-49
2024/01/11 04:28:54;;;;;;;21.13;13.60;;;19.30;99.90;;;;;;5054002;28;20497;-51
2024/01/11 04:31:20;;;;;;;22.58;13.50;;;19.30;99.90;;;;;;5054006;28;20025;-49
2024/01/11 04:33:46;;;;;;;23.35;13.68;;;19.30;99.90;;;;;;5053949;28;20535;-49
2024/01/11 04:36:13;;;;;;;18.85;12.02;;;19.30;99.90;;;;;;5053868;28;20060;-49
2024/01/11 04:38:39;;;;;;;21.08;12.85;;;19.30;99.90;;;;;;5053816;28;20025;-50
2024/01/11 04:41:09;;;;;;;21.63;13.05;;;19.30;99.90;;;;;;5053800;28;20481;-49
2024/01/11 04:43:43;;;;;;;19.33;11.90;;;19.30;99.90;;;;;;5054129;28;20033;-49
2024/01/11 04:46:18;;;;;;;16.58;10.63;;;19.20;99.90;;;;;;5053791;28;20068;-49
2024/01/11 04:48:45;;;;;;;22.70;13.80;;;19.20;99.90;;;;;;5053701;28;20540;-48
2024/01/11 04:51:13;;;;;;;18.02;11.93;;;19.20;99.90;;;;;;5051895;28;20382;-49
2024/01/11 04:53:39;;;;;;;22.15;12.85;;;19.20;99.90;;;;;;5036550;28;20462;-49
2024/01/11 04:56:07;;;;;;;18.67;12.27;;;19.20;99.90;;;;;;5033169;28;20033;-49
2024/01/11 04:58:34;;;;;;;17.75;11.43;;;19.20;99.90;;;;;;5031504;28;20416;-49
2024/01/11 05:01:00;;;;;;;22.42;11.15;;;19.20;99.90;;;;;;5033908;28;20068;-49
2024/01/11 05:03:26;;;;;;;16.77;10.80;;;19.20;99.90;;;;;;5033182;28;20503;-49
2024/01/11 05:05:52;;;;;;;17.48;10.98;;;19.20;99.90;;;;;;5032606;28;20105;-49
2024/01/11 05:08:17;;;;;;;21.10;11.65;;;19.20;99.90;;;;;;5031457;28;20486;-48
2024/01/11 05:10:44;;;;;;;17.77;10.70;;;19.20;99.90;;;;;;5031651;28;20151;-49
2024/01/11 05:13:10;;;;;;;15.60;10.25;;;19.10;99.90;;;;;;5032619;28;20067;-48
2024/01/11 05:15:36;;;;;;;17.67;10.32;;;19.20;99.90;;;;;;5033499;28;20025;-49
2024/01/11 05:18:01;;;;;;;17.20;10.70;;;19.10;99.90;;;;;;5033127;28;20061;-50
2024/01/11 05:20:27;;;;;;;14.85;9.45;;;19.10;99.90;;;;;;5033040;28;20032;-49
2024/01/11 05:22:54;;;;;;;14.07;9.77;;;19.10;99.90;;;;;;5015272;28;20037;-49
2024/01/11 05:25:20;;;;;;;15.90;9.85;;;19.10;99.90;;;;;;5033031;28;20033;-49
2024/01/11 05:27:45;;;;;;;16.85;10.43;;;19.10;99.90;;;;;;5031834;28;20032;-51
2024/01/11 05:30:12;;;;;;;16.10;9.95;;;19.10;99.90;;;;;;5032918;28;20026;-50
2024/01/11 05:32:38;;;;;;;15.90;9.32;;;19.10;99.90;;;;;;5033133;28;20060;-50
2024/01/11 05:35:04;;;;;;;14.50;9.23;;;19.00;99.90;;;;;;5032898;28;20420;-50
2024/01/11 05:37:30;;;;;;;14.77;9.23;;;19.00;99.90;;;;;;5032883;28;20037;-49
2024/01/11 05:39:57;;;;;;;13.45;8.55;;;19.00;99.90;;;;;;5032756;28;20025;-49
2024/01/11 05:42:23;;;;;;;13.17;8.70;;;19.00;99.90;;;;;;5032784;28;20392;-50
2024/01/11 05:44:50;;;;;;;14.30;8.43;;;19.00;99.90;;;;;;5033020;28;20460;-49
2024/01/11 05:47:16;;;;;;;13.95;8.63;;;19.00;99.90;;;;;;5032661;28;20092;-49
2024/01/11 05:49:41;;;;;;;14.55;9.18;;;19.00;99.90;;;;;;5031478;28;20021;-49
2024/01/11 05:52:08;;;;;;;14.40;8.25;;;19.00;99.90;;;;;;5033941;28;20083;-50
2024/01/11 05:54:33;;;;;;;13.00;8.25;;;19.00;99.90;;;;;;5032559;28;20481;-49
2024/01/11 05:56:59;;;;;;;13.68;8.30;;;19.00;99.90;;;;;;5032998;28;20029;-49
2024/01/11 05:59:26;;;;;;;12.52;8.35;;;19.00;99.90;;;;;;5032320;28;20024;-50
2024/01/11 06:01:51;;;;;;;13.90;8.63;;;18.90;99.90;;;;;;5032778;28;20053;-49
2024/01/11 06:04:17;;;;;;;10.95;7.57;;;18.90;99.90;;;;;;5031401;28;20424;-49
2024/01/11 06:06:43;;;;;;;11.65;7.78;;;18.90;99.90;;;;;;5030588;28;20025;-49
2024/01/11 06:09:10;;;;;;;11.65;8.07;;;18.90;99.90;;;;;;5033729;28;20025;-49
2024/01/11 06:11:36;;;;;;;11.88;7.63;;;18.90;99.90;;;;;;5034146;28;20021;-49
2024/01/11 06:14:02;;;;;;;11.10;7.38;;;18.90;99.90;;;;;;5032048;28;20029;-49
2024/01/11 06:16:28;;;;;;;12.15;7.55;;;18.90;99.90;;;;;;5034138;28;20026;-49
2024/01/11 06:18:54;;;;;;;11.65;7.10;;;18.90;99.90;;;;;;5032737;28;20231;-49
2024/01/11 06:21:20;;;;;;;13.23;8.05;;;18.90;99.90;;;;;;5030776;28;20480;-49
2024/01/11 06:23:46;;;;;;;12.68;7.53;;;18.90;99.90;;;;;;5029411;28;20036;-50
2024/01/11 06:26:12;;;;;;;9.80;6.97;;;18.90;99.90;;;;;;5030185;28;20093;-50
2024/01/11 06:28:38;;;;;;;10.60;6.75;;;18.90;99.90;;;;;;5029775;28;20018;-50
2024/01/11 06:31:03;;;;;;;10.88;7.43;;;18.80;99.90;;;;;;5029953;28;20080;-50
2024/01/11 06:33:29;;;;;;;10.80;7.15;;;18.80;99.90;;;;;;5029932;28;20474;-49
2024/01/11 06:35:56;;;;;;;11.07;7.03;;;18.80;99.90;;;;;;5029967;28;20021;-50
2024/01/11 06:38:21;;;;;;;11.43;7.15;;;18.80;99.90;;;;;;5030544;28;20048;-50
2024/01/11 06:40:48;;;;;;;8.80;6.00;;;18.80;99.90;;;;;;5031767;28;20025;-49
2024/01/11 06:43:15;;;;;;;10.05;6.60;;;18.80;99.90;;;;;;5032094;28;20478;-50
2024/01/11 06:45:43;;;;;;;9.77;6.03;;;18.80;99.90;;;;;;5032227;28;20061;-50
2024/01/11 06:48:08;;;;;;;9.15;6.10;;;18.80;99.90;;;;;;5031931;28;20074;-50
2024/01/11 06:50:34;;;;;;;10.30;6.13;;;18.80;99.90;;;;;;5030428;28;20065;-50
2024/01/11 06:53:01;;;;;;;10.82;6.28;;;18.80;99.90;;;;;;5031809;28;20033;-50
2024/01/11 06:55:27;;;;;;;9.37;6.30;;;18.80;99.90;;;;;;5031886;28;20070;-50
2024/01/11 06:57:53;;;;;;;9.70;6.00;;;18.80;99.90;;;;;;5031829;28;20025;-50
2024/01/11 07:00:19;;;;;;;8.88;5.82;;;18.70;99.90;;;;;;5031829;28;20041;-50
2024/01/11 07:02:45;;;;;;;11.07;6.78;;;18.70;99.90;;;;;;5031677;28;20516;-50
2024/01/11 07:05:12;;;;;;;10.68;6.40;;;18.80;99.90;;;;;;5031867;28;20029;-49
2024/01/11 07:07:38;;;;;;;7.67;5.20;;;18.70;99.90;;;;;;5031770;28;20036;-49
2024/01/11 07:10:05;;;;;;;8.98;5.47;;;18.70;99.90;;;;;;5031676;28;20018;-49
2024/01/11 07:12:31;;;;;;;9.30;6.13;;;18.70;99.90;;;;;;5031672;28;20033;-50
2024/01/11 07:14:57;;;;;;;8.77;6.05;;;18.70;99.90;;;;;;5031749;28;20028;-50
2024/01/11 07:17:23;;;;;;;9.85;6.30;;;18.70;99.90;;;;;;5031610;28;20025;-49
2024/01/11 07:19:49;;;;;;;7.95;5.80;;;18.70;99.90;;;;;;5030231;28;20482;-49
2024/01/11 07:22:15;;;;;;;9.57;6.03;;;18.70;99.90;;;;;;5031713;28;20037;-49
2024/01/11 07:24:40;;;;;;;8.38;5.60;;;18.70;99.90;;;;;;5031487;28;20474;-49
2024/01/11 07:27:07;;;;;;;9.38;5.65;;;18.70;99.90;;;;;;5031494;28;20033;-50
2024/01/11 07:29:35;;;;;;;10.48;5.82;;;18.60;99.90;;;;;;5031501;28;20018;-49
2024/01/11 07:32:03;;;;;;;8.50;6.32;;;18.70;99.90;;;;;;5030267;28;20088;-50
2024/01/11 07:34:29;;;;;;;8.68;5.63;;;18.70;99.90;;;;;;5033016;28;20018;-49
2024/01/11 07:36:56;;;;;;;9.77;6.55;;;18.70;99.90;;;;;;5035122;28;20029;-51
2024/01/11 07:39:22;;;;;;;11.20;6.23;;;18.70;99.90;;;;;;5034932;28;20466;-51
2024/01/11 07:41:48;;;;;;;8.57;5.88;;;18.70;99.90;;;;;;5033508;28;20555;-50
2024/01/11 07:44:14;;;;;;;9.60;6.35;;;18.70;99.90;;;;;;5035197;28;20018;-50
2024/01/11 07:46:40;;;;;;;7.38;5.05;;;18.70;99.90;;;;;;5034786;28;20075;-50
2024/01/11 07:49:06;;;;;;;10.43;5.90;;;18.70;99.90;;;;;;5034717;28;20022;-51
2024/01/11 07:51:34;;;;;;;10.10;5.82;;;18.70;99.90;;;;;;5034878;28;20037;-50
2024/01/11 07:54:00;;;;;;;;;;;18.70;99.90;;;;;;5035090;28;20037;-50
2024/01/11 07:56:26;;;;;;;8.23;5.43;;;18.70;99.90;;;;;;5034657;28;20361;-50
2024/01/11 07:58:52;;;;;;;9.88;5.53;;;18.70;99.90;;;;;;5034725;28;20045;-51
2024/01/11 08:01:18;;;;;;;9.23;6.45;;;18.70;99.90;;;;;;5034577;28;20076;-50
2024/01/11 08:03:47;;;;;;;10.27;5.40;;;18.70;99.90;;;;;;5034771;28;20060;-49
2024/01/11 08:06:13;;;;;;;10.02;5.78;;;18.70;99.90;;;;;;5033599;28;20386;-49
2024/01/11 08:08:40;;;;;;;10.82;5.82;;;18.70;99.90;;;;;;5034311;28;20036;-50
2024/01/11 08:11:07;;;;;;;9.73;5.70;;;18.80;99.90;;;;;;5033113;28;20025;-49
2024/01/11 08:13:34;;;;;;;10.52;6.20;;;18.80;99.90;;;;;;5034349;28;20339;-50
2024/01/11 08:16:04;;;;;;;7.68;5.10;;;18.80;99.90;;;;;;5034254;28;20105;-50
2024/01/11 08:18:33;;;;;;;9.27;5.93;;;18.80;99.90;;;;;;5034284;28;20022;-50
2024/01/11 08:20:58;;;;;;;9.20;5.65;;;18.80;99.90;;;;;;5034046;28;20025;-50
2024/01/11 08:23:24;;;;;;;10.25;6.10;;;18.90;99.90;;;;;;5034121;28;20045;-49
2024/01/11 08:25:52;;;;;;;9.35;5.20;;;18.90;99.90;;;;;;5034056;28;20104;-50
2024/01/11 08:28:18;;;;;;;7.65;5.30;;;18.90;99.90;;;;;;5034230;28;20028;-50
2024/01/11 08:30:44;;;;;;;7.93;4.97;;;18.90;99.90;;;;;;5032708;28;20022;-51
2024/01/11 08:33:10;;;;;;;9.07;5.50;;;19.00;99.90;;;;;;5032833;28;20101;-50
2024/01/11 08:35:36;;;;;;;7.32;5.22;;;19.00;99.90;;;;;;5033920;28;20033;-50
2024/01/11 08:38:02;;;;;;;8.02;4.85;;;19.00;99.90;;;;;;5033863;28;20040;-50
2024/01/11 08:40:28;;;;;;;7.45;4.80;;;19.10;99.90;;;;;;5033821;28;20021;-50
2024/01/11 08:42:54;;;;;;;9.82;6.10;;;19.10;99.90;;;;;;5032549;28;20497;-50
2024/01/11 08:45:22;;;;;;;9.15;5.55;;;19.10;99.90;;;;;;5033507;28;20100;-50
2024/01/11 08:47:48;;;;;;;10.57;5.60;;;19.20;99.90;;;;;;5033707;28;20025;-50
2024/01/11 08:50:14;;;;;;;8.48;5.22;;;19.20;99.90;;;;;;5032050;28;20124;-51
2024/01/11 08:52:42;;;;;;;7.90;5.28;;;19.20;99.90;;;;;;5033529;28;20030;-50
2024/01/11 08:55:08;;;;;;;6.03;4.45;;;19.20;99.90;;;;;;5033716;28;20044;-50
2024/01/11 08:57:35;;;;;;;9.18;4.85;;;19.30;99.90;;;;;;5033490;28;20108;-50
2024/01/11 09:00:03;;;;;;;10.77;5.30;;;19.30;99.90;;;;;;5033469;28;20056;-50
2024/01/11 09:02:29;;;;;;;6.75;4.93;;;19.30;99.90;;;;;;5032156;28;20073;-51
2024/01/11 09:04:55;;;;;;;7.45;5.00;;;19.30;99.90;;;;;;5033378;28;20531;-51
2024/01/11 09:07:21;;;;;;;7.93;5.07;;;19.40;99.90;;;;;;5033412;28;20026;-50
2024/01/11 09:09:47;;;;;;;7.03;5.05;;;19.40;99.90;;;;;;5033371;28;20117;-50
2024/01/11 09:12:14;;;;;;;6.80;4.50;;;19.40;99.90;;;;;;5032123;28;20421;-51
2024/01/11 09:14:40;;;;;;;7.63;5.05;;;19.50;99.90;;;;;;5031965;28;20068;-50
2024/01/11 09:17:06;;;;;;;7.55;4.60;;;19.40;99.90;;;;;;5033140;28;20071;-51
2024/01/11 09:19:34;;;;;;;6.93;4.82;;;19.50;99.90;;;;;;5033146;28;20075;-50
2024/01/11 09:22:00;;;;;;;7.47;4.57;;;19.50;99.90;;;;;;5033117;28;20033;-51
2024/01/11 09:24:26;;;;;;;7.72;4.75;;;19.50;99.90;;;;;;5033058;28;20025;-50
2024/01/11 09:26:52;;;;;;;7.65;5.05;;;19.60;99.90;;;;;;5031956;28;20116;-50
2024/01/11 09:29:18;;;;;;;7.22;4.40;;;19.60;99.90;;;;;;5031724;28;20078;-50
2024/01/11 09:31:44;;;;;;;6.95;4.95;;;19.60;99.90;;;;;;5032959;28;20025;-50
2024/01/11 09:34:10;;;;;;;11.13;4.65;;;19.60;99.90;;;;;;5032987;28;20101;-50
2024/01/11 09:36:38;;;;;;;7.03;4.72;;;19.60;99.90;;;;;;5032902;28;20034;-50
2024/01/11 09:39:05;;;;;;;8.55;4.40;;;19.60;99.90;;;;;;5033808;28;20147;-50
2024/01/11 09:41:31;;;;;;;6.80;4.50;;;19.70;99.90;;;;;;5036102;28;20453;-50
2024/01/11 09:44:00;;;;;;;8.10;4.20;;;19.70;99.90;;;;;;5052383;28;20274;-50
2024/01/11 09:46:28;;;;;;;7.07;4.20;;;19.80;99.90;;;;;;5050231;28;20021;-50
2024/01/11 09:48:55;;;;;;;8.85;4.35;;;19.80;99.90;;;;;;5034655;28;20084;-50
2024/01/11 09:51:21;;;;;;;12.85;4.28;;;19.80;99.90;;;;;;5032043;28;20041;-50
2024/01/11 09:53:51;;;;;;;7.93;4.22;;;19.90;99.90;;;;;;5032398;28;20032;-50
2024/01/11 09:56:16;;;;;;;7.38;4.40;;;19.90;99.90;;;;;;5031891;28;20021;-49
2024/01/11 09:58:50;;;;;;;6.88;4.43;;;19.90;99.90;;;;;;5031148;28;20529;-51
2024/01/11 10:01:16;;;;;;;6.13;4.38;;;20.00;99.90;;;;;;5032204;28;20091;-50
2024/01/11 10:03:44;;;;;;;7.15;4.18;;;20.10;99.90;;;;;;5032396;28;20069;-50
2024/01/11 10:06:10;;;;;;;7.20;4.32;;;20.10;99.90;;;;;;5032359;28;20492;-50
2024/01/11 10:08:36;;;;;;;8.20;4.68;;;20.10;99.90;;;;;;5032362;28;20064;-50
2024/01/11 10:11:03;;;;;;;6.50;3.88;;;20.10;99.90;;;;;;5032201;28;20507;-50
2024/01/11 10:13:30;;;;;;;6.25;4.15;;;20.20;99.90;;;;;;5032390;28;20029;-50
2024/01/11 10:16:08;;;;;;;6.00;4.18;;;20.20;99.90;;;;;;5031364;28;20025;-50
2024/01/11 10:18:34;;;;;;;7.50;4.32;;;20.20;99.90;;;;;;5032280;28;20029;-49
2024/01/11 10:20:59;;;;;;;6.25;4.13;;;20.30;99.90;;;;;;5032143;28;20032;-50
2024/01/11 10:23:25;;;;;;;7.32;4.25;;;20.30;99.90;;;;;;5032497;28;20025;-49
2024/01/11 10:25:58;;;;;;;8.18;4.40;;;20.30;99.90;;;;;;5015070;28;20108;-50
2024/01/11 10:28:26;;;;;;;8.77;4.63;;;20.40;99.90;;;;;;5032162;28;20025;-49
2024/01/11 10:30:53;;;;;;;8.77;4.35;;;20.40;99.90;;;;;;5032210;28;20017;-49
2024/01/11 10:33:22;;;;;;;8.27;4.70;;;20.50;99.90;;;;;;5032008;28;20024;-49
2024/01/11 10:35:49;;;;;;;8.55;4.60;;;20.50;99.90;;;;;;5032088;28;20029;-49
2024/01/11 10:38:16;;;;;;;7.85;4.90;;;20.60;99.90;;;;;;5031880;28;20021;-49
2024/01/11 10:40:42;;;;;;;9.63;4.82;;;20.60;99.90;;;;;;5031907;28;20398;-49
2024/01/11 10:43:15;;;;;;;7.90;4.95;;;20.70;99.90;;;;;;5030632;28;20037;-49
2024/01/11 10:45:41;;;;;;;7.38;4.93;;;20.70;99.90;;;;;;5031923;28;20046;-49
2024/01/11 10:48:14;;;;;;;10.35;5.20;;;20.80;99.90;;;;;;5031825;28;20386;-49
2024/01/11 10:50:45;;;;;;;8.07;5.35;;;20.80;99.90;;;;;;5031771;28;20414;-51
2024/01/11 10:53:28;;;;;;;9.30;5.93;;;20.90;99.90;;;;;;5031755;28;20022;-50
2024/01/11 10:55:57;;;;;;;8.35;5.05;;;20.90;99.90;;;;;;5031989;28;20041;-51
2024/01/11 10:58:24;;;;;;;13.63;6.00;;;21.00;99.90;;;;;;5031875;28;20350;-50
2024/01/11 11:00:54;;;;;;;12.77;5.38;;;21.00;99.90;;;;;;5031417;28;20052;-50
2024/01/11 11:03:22;;;;;;;12.65;5.80;;;21.00;99.90;;;;;;5031616;28;20041;-49
2024/01/11 11:05:50;;;;;;;9.32;5.47;;;21.10;99.90;;;;;;5030154;28;20025;-50
2024/01/11 11:08:17;;;;;;;10.52;5.78;;;21.10;99.90;;;;;;5031635;28;20044;-50
2024/01/11 11:10:47;;;;;;;11.00;6.28;;;21.20;99.90;;;;;;5033770;28;20108;-50
2024/01/11 11:13:15;;;;;;;9.50;5.88;;;21.20;99.90;;;;;;5035271;28;20109;-49
2024/01/11 11:15:46;;;;;;;9.93;5.90;;;21.20;99.90;;;;;;5035373;28;20047;-50
2024/01/11 11:18:13;;;;;;;10.32;6.63;;;21.30;99.90;;;;;;5035263;28;20101;-50
2024/01/11 11:20:42;;;;;;;11.90;6.30;;;21.30;99.90;;;;;;5035189;28;20029;-51
2024/01/11 11:23:17;;;;;;;14.43;6.30;;;21.40;99.90;;;;;;5035132;28;20033;-50
2024/01/11 11:25:45;;;;;;;9.15;5.55;;;21.40;99.90;;;;;;5035037;28;20026;-51
2024/01/11 11:28:18;;;;;;;9.43;5.80;;;21.40;99.90;;;;;;5033746;28;20030;-51
2024/01/11 11:30:47;;;;;;;11.50;6.57;;;21.50;99.90;;;;;;5035026;28;20017;-50
2024/01/11 11:33:21;;;;;;;10.63;6.00;;;21.50;99.90;;;;;;5033814;28;20025;-50
2024/01/11 11:35:48;;;;;;;10.68;6.05;;;21.50;99.90;;;;;;5034953;28;20021;-50
2024/01/11 11:38:18;;;;;;;10.27;5.13;;;21.60;99.90;;;;;;5033833;28;20524;-50
2024/01/11 11:40:46;;;;;;;13.65;5.88;;;21.60;99.90;;;;;;5034752;28;20038;-50
2024/01/11 11:43:13;;;;;;;8.05;5.35;;;21.60;99.90;;;;;;5034700;28;20061;-50
2024/01/11 11:45:41;;;;;;;10.90;6.40;;;21.70;99.90;;;;;;5034815;28;20041;-50
2024/01/11 11:48:28;;;;;;;11.57;6.03;;;21.70;99.90;;;;;;5034661;28;20036;-51
2024/01/11 11:51:08;;;;;;;10.57;6.15;;;21.70;99.90;;;;;;5034584;28;20075;-50
2024/01/11 11:53:35;;;;;;;10.85;6.13;;;21.70;99.90;;;;;;5034389;28;20075;-50
2024/01/11 11:56:02;;;;;;;12.07;6.75;;;21.80;99.90;;;;;;5034573;28;20076;-50
2024/01/11 11:58:32;;;;;;;15.33;7.13;;;21.80;99.90;;;;;;5034872;28;20395;-51
2024/01/11 12:00:58;;;;;;;8.80;6.20;;;21.80;99.90;;;;;;5033203;28;20352;-51
2024/01/11 12:03:32;;;;;;;11.73;6.60;;;21.90;99.90;;;;;;5034559;28;20026;-50
2024/01/11 12:06:00;;;;;;;10.82;5.97;;;21.90;99.90;;;;;;5034410;28;20021;-50
2024/01/11 12:08:27;;;;;;;11.52;6.28;;;21.90;99.90;;;;;;5034267;28;20108;-51
2024/01/11 12:10:53;;;;;;;10.55;6.38;;;22.00;99.90;;;;;;5034492;28;20430;-50
2024/01/11 12:13:19;;;;;;;9.13;5.75;;;22.00;99.90;;;;;;5034274;28;20032;-50
2024/01/11 12:15:46;;;;;;;10.35;5.90;;;22.00;99.90;;;;;;5034316;28;20018;-50
2024/01/11 12:18:12;;;;;;;9.85;6.22;;;22.10;99.90;;;;;;5034260;28;20033;-50
2024/01/11 12:20:38;;;;;;;10.27;6.22;;;22.10;99.90;;;;;;5033203;28;20017;-50
2024/01/11 12:23:04;;;;;;;9.35;5.32;;;22.10;99.90;;;;;;5032646;28;20048;-51
2024/01/11 12:25:31;;;;;;;9.68;6.03;;;22.10;99.90;;;;;;5034306;28;20067;-50
2024/01/11 12:27:58;;;;;;;8.68;5.30;;;22.20;99.90;;;;;;5034122;28;20026;-50
2024/01/11 12:30:25;;;;;;;11.68;5.90;;;22.20;99.90;;;;;;5033921;28;20025;-50
2024/01/11 12:32:51;;;;;;;8.50;5.53;;;22.20;99.90;;;;;;5033865;28;20478;-51
2024/01/11 12:35:17;;;;;;;8.50;5.80;;;22.30;99.90;;;;;;5033637;28;20030;-50